Time;durP1;ratioP1;P1;durP2;ratioP2;P2;SDS_P1;SDS_P2;PMS_P1;PMS_P2;Temp;Humidity;BMP_temperature;BMP_pressure;BME280_temperature;BME280_humidity;BME280_pressure;Samples;Min_cycle;Max_cycle;Signal;HPM_P1;HPM_P2
2021/03/24 00:00:20;;;;;;;33.97;18.00;;;3.10;99.90;;;;;;5052228;28;20486;-78
2021/03/24 00:02:46;;;;;;;34.38;17.77;;;3.10;99.90;;;;;;5052293;28;20059;-78
2021/03/24 00:05:17;;;;;;;39.72;18.98;;;3.10;99.90;;;;;;5053615;28;20450;-79
2021/03/24 00:07:43;;;;;;;30.67;17.15;;;3.10;99.90;;;;;;5051589;28;20116;-78
2021/03/24 00:10:11;;;;;;;38.00;16.75;;;3.10;99.90;;;;;;5052162;28;20036;-78
2021/03/24 00:12:39;;;;;;;30.17;16.60;;;3.10;99.90;;;;;;5053528;28;20028;-78
2021/03/24 00:15:11;;;;;;;27.92;15.95;;;3.00;99.90;;;;;;5052097;28;20109;-79
2021/03/24 00:17:38;;;;;;;26.02;14.13;;;3.00;99.90;;;;;;5052299;28;20017;-79
2021/03/24 00:20:06;;;;;;;28.30;14.75;;;3.00;99.90;;;;;;5052191;28;20025;-78
2021/03/24 00:22:32;;;;;;;33.88;14.88;;;3.00;99.90;;;;;;5051891;28;20041;-78
2021/03/24 00:24:58;;;;;;;34.35;17.02;;;3.00;99.90;;;;;;5051965;28;20063;-78
2021/03/24 00:27:23;;;;;;;32.55;16.38;;;3.00;99.90;;;;;;5052057;28;20047;-78
2021/03/24 00:29:49;;;;;;;32.58;16.98;;;2.90;99.90;;;;;;5053144;28;20044;-78
2021/03/24 00:32:15;;;;;;;31.48;14.75;;;2.90;99.90;;;;;;5051958;28;20047;-78
2021/03/24 00:34:41;;;;;;;32.25;15.68;;;2.90;99.90;;;;;;5053131;28;20355;-78
2021/03/24 00:37:07;;;;;;;29.45;16.65;;;2.90;99.90;;;;;;5053142;28;20056;-78
2021/03/24 00:39:32;;;;;;;24.25;14.95;;;2.90;99.90;;;;;;5053159;28;20096;-78
2021/03/24 00:41:58;;;;;;;30.23;15.43;;;2.80;99.90;;;;;;5051747;28;20021;-78
2021/03/24 00:44:23;;;;;;;30.77;16.50;;;2.80;99.90;;;;;;5051706;28;20482;-77
2021/03/24 00:46:49;;;;;;;30.60;15.13;;;2.80;99.90;;;;;;5051708;28;20070;-78
2021/03/24 00:49:15;;;;;;;34.85;15.38;;;2.80;99.90;;;;;;5052768;28;20032;-77
2021/03/24 00:51:41;;;;;;;31.60;16.02;;;2.80;99.90;;;;;;5051691;28;20021;-77
2021/03/24 00:54:07;;;;;;;30.58;16.05;;;2.80;99.90;;;;;;5052336;28;20032;-78
2021/03/24 00:56:33;;;;;;;33.85;17.40;;;2.80;99.90;;;;;;5052940;28;20029;-78
2021/03/24 00:58:59;;;;;;;29.67;16.38;;;2.80;99.90;;;;;;5051565;28;20079;-78
2021/03/24 01:01:24;;;;;;;32.00;14.75;;;2.80;99.90;;;;;;5052807;28;20453;-78
2021/03/24 01:03:50;;;;;;;35.42;17.58;;;2.80;99.90;;;;;;5051468;28;20079;-78
2021/03/24 01:06:16;;;;;;;33.05;16.30;;;2.80;99.90;;;;;;5052789;28;20040;-78
2021/03/24 01:08:41;;;;;;;34.75;16.20;;;2.80;99.90;;;;;;5051543;28;20021;-78
2021/03/24 01:11:07;;;;;;;31.15;14.50;;;2.80;99.90;;;;;;5051392;28;20036;-78
2021/03/24 01:13:33;;;;;;;35.03;15.18;;;2.80;99.90;;;;;;5051353;28;20025;-78
2021/03/24 01:15:58;;;;;;;30.73;17.95;;;2.80;99.90;;;;;;5051482;28;20075;-79
2021/03/24 01:18:25;;;;;;;35.20;16.95;;;2.80;99.90;;;;;;5054876;28;20028;-80
2021/03/24 01:20:51;;;;;;;34.22;17.42;;;2.80;99.90;;;;;;5053911;28;20457;-79
2021/03/24 01:23:17;;;;;;;31.15;15.85;;;2.80;99.90;;;;;;5055804;28;20046;-79
2021/03/24 01:25:43;;;;;;;31.58;15.75;;;2.80;99.90;;;;;;5056811;28;20056;-78
2021/03/24 01:28:17;;;;;;;33.15;15.75;;;2.80;99.90;;;;;;5055351;28;20020;-78
2021/03/24 01:30:42;;;;;;;35.90;17.63;;;2.80;99.90;;;;;;5056402;28;20397;-78
2021/03/24 01:33:08;;;;;;;29.90;15.82;;;2.80;99.90;;;;;;5055275;28;20132;-79
2021/03/24 01:35:34;;;;;;;30.77;15.90;;;2.80;99.90;;;;;;5055257;28;20063;-78
2021/03/24 01:37:59;;;;;;;34.60;17.33;;;2.80;99.90;;;;;;5056488;28;20039;-78
2021/03/24 01:40:30;;;;;;;33.65;17.20;;;2.80;99.90;;;;;;5055095;28;20119;-77
2021/03/24 01:43:00;;;;;;;30.38;17.35;;;2.70;99.90;;;;;;5055176;28;20033;-78
2021/03/24 01:45:25;;;;;;;29.23;16.75;;;2.70;99.90;;;;;;5056249;28;20013;-78
2021/03/24 01:47:53;;;;;;;34.15;18.17;;;2.80;99.90;;;;;;5056246;28;20498;-77
2021/03/24 01:50:34;;;;;;;32.70;17.80;;;2.70;99.90;;;;;;5054868;28;20461;-78
2021/03/24 01:53:01;;;;;;;35.10;17.25;;;2.70;99.90;;;;;;5055949;28;20017;-78
2021/03/24 01:55:27;;;;;;;35.42;17.35;;;2.70;99.90;;;;;;5056194;28;20075;-78
2021/03/24 01:57:54;;;;;;;33.70;17.63;;;2.70;99.90;;;;;;5056143;28;20017;-78
2021/03/24 02:00:26;;;;;;;36.20;17.25;;;2.70;99.90;;;;;;5055993;28;20032;-78
2021/03/24 02:02:52;;;;;;;36.30;17.95;;;2.70;99.90;;;;;;5054745;28;20017;-78
2021/03/24 02:05:18;;;;;;;35.75;18.67;;;2.70;99.90;;;;;;5054658;28;20481;-78
2021/03/24 02:08:09;;;;;;;39.00;18.27;;;2.70;99.90;;;;;;5054653;28;20383;-78
2021/03/24 02:11:02;;;;;;;37.15;17.23;;;2.70;99.90;;;;;;5055521;28;20108;-78
2021/03/24 02:13:36;;;;;;;32.25;16.58;;;2.70;99.90;;;;;;5055970;28;20025;-78
2021/03/24 02:16:13;;;;;;;39.88;18.10;;;2.80;99.90;;;;;;5054459;28;20029;-78
2021/03/24 02:18:41;;;;;;;39.15;17.48;;;2.70;99.90;;;;;;5054577;28;20025;-78
2021/03/24 02:21:24;;;;;;;40.95;17.40;;;2.70;99.90;;;;;;5055427;28;20044;-78
2021/03/24 02:23:53;;;;;;;;;;;2.70;99.90;;;;;;5054877;28;20390;-77
2021/03/24 02:26:50;;;;;;;30.05;16.00;;;2.70;99.90;;;;;;5054290;28;19909;-77
2021/03/24 02:29:20;;;;;;;35.35;17.50;;;2.70;99.90;;;;;;5054239;28;20364;-77
2021/03/24 02:31:46;;;;;;;43.00;18.67;;;2.70;99.90;;;;;;5055568;28;20077;-78
2021/03/24 02:34:18;;;;;;;31.92;16.73;;;2.70;99.90;;;;;;5055466;28;20029;-77
2021/03/24 02:36:44;;;;;;;38.50;18.55;;;2.70;99.90;;;;;;5055397;28;20127;-78
2021/03/24 02:39:15;;;;;;;35.20;17.95;;;2.70;99.90;;;;;;5054036;28;20120;-78
2021/03/24 02:41:41;;;;;;;30.73;15.88;;;2.70;99.90;;;;;;5054200;28;20131;-77
2021/03/24 02:44:08;;;;;;;32.42;17.33;;;2.70;99.90;;;;;;5055205;28;20021;-78
2021/03/24 02:46:35;;;;;;;37.42;18.88;;;2.70;99.90;;;;;;5055166;28;20033;-77
2021/03/24 02:49:04;;;;;;;33.45;17.58;;;2.70;99.90;;;;;;5054001;28;20037;-78
2021/03/24 02:51:31;;;;;;;32.72;16.30;;;2.70;99.90;;;;;;5053452;28;20029;-78
2021/03/24 02:53:57;;;;;;;41.08;17.10;;;2.70;99.90;;;;;;5053791;28;20021;-78
2021/03/24 02:56:22;;;;;;;38.25;18.20;;;2.70;99.90;;;;;;5053774;28;20082;-78
2021/03/24 02:58:51;;;;;;;39.53;19.20;;;2.70;99.90;;;;;;5053333;28;20072;-78
2021/03/24 03:01:27;;;;;;;33.50;16.83;;;2.70;99.90;;;;;;5054631;28;20425;-78
2021/03/24 03:04:04;;;;;;;37.25;18.08;;;2.70;99.90;;;;;;5053600;28;20052;-78
2021/03/24 03:06:30;;;;;;;31.17;16.38;;;2.70;99.90;;;;;;5053604;28;20074;-77
2021/03/24 03:09:04;;;;;;;41.92;18.70;;;2.70;99.90;;;;;;5053796;28;20025;-78
2021/03/24 03:12:01;;;;;;;42.78;20.27;;;2.70;99.90;;;;;;5053534;28;20044;-78
2021/03/24 03:14:43;;;;;;;36.00;17.80;;;2.70;99.90;;;;;;5051472;28;20091;-77
2021/03/24 03:17:18;;;;;;;37.22;18.33;;;2.60;99.90;;;;;;5054696;28;20060;-78
2021/03/24 03:19:57;;;;;;;38.75;18.02;;;2.70;99.90;;;;;;5054695;28;20061;-78
2021/03/24 03:22:36;;;;;;;30.35;16.63;;;2.70;99.90;;;;;;5053099;28;20028;-78
2021/03/24 03:25:11;;;;;;;33.72;17.88;;;2.70;99.90;;;;;;5053294;28;20025;-78
2021/03/24 03:27:38;;;;;;;37.10;18.55;;;2.60;99.90;;;;;;5053257;28;20021;-78
2021/03/24 03:30:08;;;;;;;34.50;19.15;;;2.70;99.90;;;;;;5052945;28;20064;-78
2021/03/24 03:32:36;;;;;;;39.63;19.15;;;2.60;99.90;;;;;;5054340;28;20029;-78
2021/03/24 03:35:10;;;;;;;40.00;18.23;;;2.60;99.90;;;;;;5054196;28;20021;-78
2021/03/24 03:37:37;;;;;;;34.38;18.10;;;2.60;99.90;;;;;;5053047;28;20035;-78
2021/03/24 03:40:06;;;;;;;34.22;19.58;;;2.60;99.90;;;;;;5052757;28;20104;-78
2021/03/24 03:42:32;;;;;;;40.60;19.13;;;2.60;99.90;;;;;;5054094;28;20386;-78
2021/03/24 03:45:00;;;;;;;41.60;20.35;;;2.60;99.90;;;;;;5052810;28;20031;-78
2021/03/24 03:47:26;;;;;;;41.15;21.17;;;2.60;99.90;;;;;;5054078;28;20048;-78
2021/03/24 03:49:51;;;;;;;37.90;19.20;;;2.60;99.90;;;;;;5052718;28;20056;-77
2021/03/24 03:53:04;;;;;;;43.75;21.27;;;2.60;99.90;;;;;;5053689;28;20364;-78
2021/03/24 03:55:42;;;;;;;49.08;23.05;;;2.60;99.90;;;;;;5034507;28;20474;-78
2021/03/24 03:58:18;;;;;;;39.85;19.30;;;2.60;99.90;;;;;;5053884;28;20021;-78
2021/03/24 04:00:51;;;;;;;44.45;20.15;;;2.60;99.90;;;;;;5052573;28;20029;-78
2021/03/24 04:03:18;;;;;;;;;;;2.60;99.90;;;;;;5054236;28;20029;-79
2021/03/24 04:06:16;;;;;;;43.50;20.58;;;2.60;99.90;;;;;;5053741;28;19970;-78
2021/03/24 04:08:43;;;;;;;41.00;20.17;;;2.60;99.90;;;;;;5051791;28;20029;-78
2021/03/24 04:11:10;;;;;;;42.50;19.67;;;2.60;99.90;;;;;;5053538;28;20454;-78
2021/03/24 04:13:44;;;;;;;46.78;22.23;;;2.60;99.90;;;;;;5052356;28;20017;-78
2021/03/24 04:16:11;;;;;;;47.35;22.05;;;2.60;99.90;;;;;;5052206;28;20025;-78
2021/03/24 04:18:48;;;;;;;48.22;21.40;;;2.60;99.90;;;;;;5052219;28;20018;-78
2021/03/24 04:21:14;;;;;;;43.17;20.25;;;2.60;99.90;;;;;;5053245;28;20504;-78
2021/03/24 04:23:45;;;;;;;43.78;20.63;;;2.60;99.90;;;;;;5052197;28;20062;-78
2021/03/24 04:26:26;;;;;;;36.70;18.40;;;2.60;99.90;;;;;;5052058;28;20037;-78
2021/03/24 04:28:58;;;;;;;37.22;19.27;;;2.60;99.90;;;;;;5053310;28;20028;-78
2021/03/24 04:31:27;;;;;;;39.70;18.55;;;2.60;99.90;;;;;;5053084;28;20123;-78
2021/03/24 04:33:53;;;;;;;42.28;19.33;;;2.60;99.90;;;;;;5051941;28;20415;-78
2021/03/24 04:36:32;;;;;;;41.97;19.17;;;2.60;99.90;;;;;;5051810;28;20027;-78
2021/03/24 04:39:06;;;;;;;38.33;19.23;;;2.60;99.90;;;;;;5051862;28;20117;-78
2021/03/24 04:41:38;;;;;;;40.50;20.30;;;2.60;99.90;;;;;;5053199;28;20052;-78
2021/03/24 04:44:14;;;;;;;37.50;18.30;;;2.60;99.90;;;;;;5051367;28;20095;-78
2021/03/24 04:46:43;;;;;;;37.20;19.77;;;2.60;99.90;;;;;;5053131;28;20448;-78
2021/03/24 04:49:14;;;;;;;37.35;17.38;;;2.60;99.90;;;;;;5053299;28;20029;-78
2021/03/24 04:51:41;;;;;;;39.70;18.77;;;2.60;99.90;;;;;;5051375;28;20031;-78
2021/03/24 04:54:30;;;;;;;40.05;19.42;;;2.60;99.90;;;;;;5052515;28;20029;-78
2021/03/24 04:57:02;;;;;;;41.65;21.45;;;2.60;99.90;;;;;;5052948;28;20020;-78
2021/03/24 04:59:33;;;;;;;38.58;19.50;;;2.60;99.90;;;;;;5052484;28;20446;-78
2021/03/24 05:02:04;;;;;;;40.88;20.20;;;2.60;99.90;;;;;;5052403;28;20478;-78
2021/03/24 05:04:59;;;;;;;42.72;19.63;;;2.60;99.90;;;;;;5051480;28;20025;-77
2021/03/24 05:07:25;;;;;;;44.28;20.88;;;2.60;99.90;;;;;;5037858;28;20098;-77
2021/03/24 05:09:50;;;;;;;39.40;20.83;;;2.70;99.90;;;;;;5052477;28;20414;-77
2021/03/24 05:12:24;;;;;;;42.13;19.73;;;2.70;99.90;;;;;;5052631;28;20551;-78
2021/03/24 05:15:25;;;;;;;48.83;22.05;;;2.70;99.90;;;;;;5051039;28;20016;-77
2021/03/24 05:17:53;;;;;;;43.63;19.83;;;2.70;99.90;;;;;;5044081;28;20116;-77
2021/03/24 05:20:30;;;;;;;43.97;21.17;;;2.70;99.90;;;;;;5051086;28;20869;-77
2021/03/24 05:22:56;;;;;;;38.58;20.15;;;2.70;99.90;;;;;;5052341;28;20025;-77
2021/03/24 05:25:32;;;;;;;44.33;20.63;;;2.70;99.90;;;;;;5050832;28;20067;-77
2021/03/24 05:28:16;;;;;;;51.53;20.85;;;2.70;99.90;;;;;;5051018;28;20109;-77
2021/03/24 05:30:53;;;;;;;45.90;21.50;;;2.80;99.90;;;;;;5050557;28;20069;-77
2021/03/24 05:33:26;;;;;;;37.83;20.65;;;2.70;99.90;;;;;;5050781;28;20032;-77
2021/03/24 05:35:57;;;;;;;43.60;21.15;;;2.80;99.90;;;;;;5052171;28;20027;-77
2021/03/24 05:38:38;;;;;;;44.58;19.73;;;2.80;99.90;;;;;;5050945;28;20033;-77
2021/03/24 05:41:06;;;;;;;51.60;21.63;;;2.80;99.90;;;;;;5051442;28;20022;-78
2021/03/24 05:43:54;;;;;;;41.00;19.75;;;2.80;99.90;;;;;;5050795;28;20029;-78
2021/03/24 05:46:22;;;;;;;41.80;20.50;;;2.80;99.90;;;;;;5050680;28;20075;-78
2021/03/24 05:49:03;;;;;;;44.35;20.02;;;2.80;99.90;;;;;;5050523;28;20064;-78
2021/03/24 05:51:50;;;;;;;46.67;21.88;;;2.80;99.90;;;;;;5051040;28;20064;-77
2021/03/24 05:54:31;;;;;;;43.38;21.42;;;2.80;99.90;;;;;;5052039;28;20029;-78
2021/03/24 05:57:31;;;;;;;44.45;20.48;;;2.80;99.90;;;;;;5052209;28;20048;-78
2021/03/24 06:00:31;;;;;;;45.45;20.65;;;2.80;99.90;;;;;;5050064;28;20032;-78
2021/03/24 06:03:16;;;;;;;42.22;21.05;;;2.90;99.90;;;;;;5050190;28;20043;-78
2021/03/24 06:06:20;;;;;;;44.08;18.83;;;2.90;99.90;;;;;;5054677;28;20459;-77
2021/03/24 06:08:48;;;;;;;;;;;2.90;99.90;;;;;;5055453;28;20033;-78
2021/03/24 06:11:51;;;;;;;39.85;18.70;;;2.90;99.90;;;;;;5055451;28;19940;-78
2021/03/24 06:14:22;;;;;;;40.10;18.85;;;3.00;99.90;;;;;;5055388;28;20041;-79
2021/03/24 06:17:24;;;;;;;42.97;18.75;;;3.00;99.90;;;;;;5055334;28;20467;-78
2021/03/24 06:19:58;;;;;;;36.13;18.80;;;3.10;99.90;;;;;;5041156;28;20060;-80
2021/03/24 06:22:40;;;;;;;43.45;19.80;;;3.10;99.90;;;;;;5054034;28;20029;-79
2021/03/24 06:25:28;;;;;;;41.20;18.98;;;3.00;99.90;;;;;;5054180;28;20057;-79
2021/03/24 06:28:28;;;;;;;32.85;18.05;;;3.10;99.90;;;;;;5054900;28;20025;-79
2021/03/24 06:31:02;;;;;;;38.95;16.25;;;3.10;99.90;;;;;;5053253;28;20045;-78
2021/03/24 06:33:56;;;;;;;37.90;17.45;;;3.10;99.90;;;;;;5044119;28;20082;-79
2021/03/24 06:36:53;;;;;;;37.80;16.52;;;3.20;99.90;;;;;;5052465;28;20037;-79
2021/03/24 06:39:24;;;;;;;42.45;19.10;;;3.20;99.90;;;;;;5051369;28;20029;-79
2021/03/24 06:41:58;;;;;;;38.15;18.83;;;3.20;99.90;;;;;;5053030;28;20025;-79
2021/03/24 06:44:54;;;;;;;83.13;45.25;;;3.30;99.90;;;;;;5051272;28;20510;-79
2021/03/24 06:47:37;;;;;;;60.88;30.85;;;3.30;99.90;;;;;;5052087;28;20025;-79
2021/03/24 06:50:18;;;;;;;98.70;47.90;;;3.30;99.90;;;;;;5053100;28;20040;-79
2021/03/24 06:53:08;;;;;;;61.75;35.45;;;3.40;99.90;;;;;;5054265;28;20025;-79
2021/03/24 06:55:56;;;;;;;39.58;21.55;;;3.40;99.90;;;;;;5052129;28;20037;-79
2021/03/24 06:58:40;;;;;;;37.33;16.33;;;3.50;99.90;;;;;;5049003;28;20120;-79
2021/03/24 07:01:33;;;;;;;34.20;15.70;;;3.50;99.90;;;;;;5051913;28;20032;-79
2021/03/24 07:04:43;;;;;;;34.13;16.00;;;3.60;99.90;;;;;;5053316;28;20025;-79
2021/03/24 07:07:45;;;;;;;33.08;15.80;;;3.60;99.90;;;;;;5053263;28;20148;-79
2021/03/24 07:10:34;;;;;;;35.72;16.17;;;3.60;99.90;;;;;;5052949;28;20124;-80
2021/03/24 07:13:33;;;;;;;29.60;14.27;;;3.60;99.90;;;;;;5054636;28;20021;-79
2021/03/24 07:16:30;;;;;;;28.15;15.10;;;3.60;99.90;;;;;;5054052;28;20056;-79
2021/03/24 07:19:22;;;;;;;26.20;14.77;;;3.70;99.90;;;;;;5049338;28;20033;-79
2021/03/24 07:22:23;;;;;;;29.77;14.60;;;3.70;99.90;;;;;;5054395;28;20363;-79
2021/03/24 07:25:22;;;;;;;33.92;14.02;;;3.70;99.90;;;;;;5054294;28;20497;-80
2021/03/24 07:28:20;;;;;;;32.33;14.18;;;3.70;99.90;;;;;;5054307;28;20032;-80
2021/03/24 07:30:48;;;;;;;22.70;12.93;;;3.80;99.90;;;;;;5052997;28;20032;-79
2021/03/24 07:33:25;;;;;;;30.45;13.55;;;3.80;99.90;;;;;;5052750;28;20393;-79
2021/03/24 07:36:12;;;;;;;29.17;14.65;;;3.90;99.90;;;;;;5054004;28;20482;-79
2021/03/24 07:39:02;;;;;;;26.50;14.80;;;4.00;99.90;;;;;;5054145;28;20032;-80
2021/03/24 07:41:47;;;;;;;39.78;16.02;;;4.00;99.90;;;;;;5054101;28;20433;-79
2021/03/24 07:44:18;;;;;;;23.88;14.82;;;4.00;99.90;;;;;;5053826;28;20024;-79
2021/03/24 07:46:59;;;;;;;34.38;15.27;;;4.00;99.90;;;;;;5054037;28;20482;-80
2021/03/24 07:49:52;;;;;;;31.27;15.35;;;4.00;99.90;;;;;;5054297;28;20028;-80
2021/03/24 07:52:50;;;;;;;31.88;14.25;;;4.10;99.90;;;;;;5052573;28;20041;-80
2021/03/24 07:55:32;;;;;;;26.13;12.55;;;4.20;99.90;;;;;;5053577;28;20045;-80
2021/03/24 07:58:26;;;;;;;24.75;12.52;;;4.30;99.90;;;;;;5052514;28;20087;-79
2021/03/24 08:01:10;;;;;;;28.50;11.13;;;4.20;99.90;;;;;;5052227;28;20029;-79
2021/03/24 08:03:51;;;;;;;29.05;13.02;;;4.30;99.90;;;;;;5053623;28;20452;-80
2021/03/24 08:06:29;;;;;;;32.15;14.45;;;4.40;99.90;;;;;;5052179;28;20029;-79
2021/03/24 08:09:34;;;;;;;27.95;11.00;;;4.50;99.90;;;;;;5053615;28;20021;-80
2021/03/24 08:12:06;;;;;;;24.30;11.48;;;4.40;99.90;;;;;;5032729;28;20087;-80
2021/03/24 08:14:35;;;;;;;25.02;12.40;;;4.40;99.90;;;;;;5053424;28;21006;-79
2021/03/24 08:17:09;;;;;;;20.35;10.32;;;4.50;99.90;;;;;;5051963;28;20059;-80
2021/03/24 08:20:27;;;;;;;21.50;11.90;;;4.50;99.90;;;;;;5053334;28;20055;-79
2021/03/24 08:23:22;;;;;;;20.08;10.73;;;4.60;99.90;;;;;;5044313;28;20068;-80
2021/03/24 08:26:05;;;;;;;18.77;10.40;;;4.70;99.90;;;;;;5051991;28;20441;-80
2021/03/24 08:29:12;;;;;;;18.02;10.55;;;4.60;99.90;;;;;;5050902;28;20021;-79
2021/03/24 08:31:53;;;;;;;22.52;10.52;;;4.70;99.20;;;;;;5032374;28;20136;-80
2021/03/24 08:34:39;;;;;;;20.98;11.38;;;4.70;98.00;;;;;;5051749;28;20449;-80
2021/03/24 08:37:17;;;;;;;21.50;10.68;;;4.70;99.90;;;;;;5053117;28;20074;-79
2021/03/24 08:39:59;;;;;;;22.85;10.98;;;4.70;98.10;;;;;;5053010;28;20088;-80
2021/03/24 08:42:59;;;;;;;20.90;9.75;;;4.80;98.10;;;;;;5052944;28;20025;-80
2021/03/24 08:45:30;;;;;;;17.02;9.77;;;4.80;96.00;;;;;;5052907;28;20029;-79
2021/03/24 08:48:04;;;;;;;13.20;8.38;;;4.70;93.10;;;;;;5052898;28;20085;-79
2021/03/24 08:50:36;;;;;;;18.60;9.93;;;4.80;91.70;;;;;;5052663;28;20037;-79
2021/03/24 08:53:07;;;;;;;18.97;9.10;;;4.90;93.80;;;;;;5042289;28;20021;-79
2021/03/24 08:55:48;;;;;;;29.83;13.55;;;4.80;90.30;;;;;;5043736;28;20272;-80
2021/03/24 08:58:23;;;;;;;27.63;12.40;;;4.90;90.70;;;;;;5048729;28;20039;-79
2021/03/24 09:01:26;;;;;;;22.10;11.90;;;5.00;90.20;;;;;;5052023;28;20039;-80
2021/03/24 09:04:13;;;;;;;18.63;10.05;;;5.10;89.80;;;;;;5050206;28;20146;-80
2021/03/24 09:06:53;;;;;;;17.55;9.30;;;5.10;87.50;;;;;;5032683;28;20033;-79
2021/03/24 09:09:49;;;;;;;29.17;14.07;;;5.00;86.80;;;;;;5032809;28;20243;-80
2021/03/24 09:12:47;;;;;;;27.10;14.88;;;4.90;87.20;;;;;;5031403;28;20176;-80
2021/03/24 09:15:23;;;;;;;19.50;11.75;;;4.80;86.40;;;;;;5036003;28;20021;-79
2021/03/24 09:18:07;;;;;;;28.95;12.35;;;4.90;87.90;;;;;;5045094;28;20374;-80
2021/03/24 09:20:38;;;;;;;17.90;9.27;;;4.90;85.30;;;;;;5043650;28;20025;-80
2021/03/24 09:23:16;;;;;;;15.73;10.15;;;4.90;84.30;;;;;;5046840;28;20120;-80
2021/03/24 09:26:03;;;;;;;20.35;10.77;;;4.90;85.10;;;;;;5052357;28;20064;-79
2021/03/24 09:28:41;;;;;;;17.67;11.75;;;5.00;84.00;;;;;;5052359;28;20021;-79
2021/03/24 09:31:28;;;;;;;22.38;12.38;;;5.00;83.50;;;;;;5052195;28;20114;-79
2021/03/24 09:33:59;;;;;;;20.75;11.07;;;4.90;84.10;;;;;;5050911;28;20032;-79
2021/03/24 09:37:18;;;;;;;24.30;12.48;;;5.00;84.10;;;;;;5051077;28;20033;-81
2021/03/24 09:39:56;;;;;;;22.30;11.10;;;5.00;84.20;;;;;;5032208;28;20037;-81
2021/03/24 09:42:34;;;;;;;25.73;12.25;;;4.90;84.20;;;;;;5054904;28;20056;-79
2021/03/24 09:45:12;;;;;;;19.38;11.32;;;4.90;83.90;;;;;;5056190;28;20052;-79
2021/03/24 09:47:52;;;;;;;19.83;9.55;;;5.00;84.40;;;;;;5055191;28;20033;-79
2021/03/24 09:50:30;;;;;;;20.20;12.20;;;4.90;85.00;;;;;;5056497;28;20115;-79
2021/03/24 09:53:17;;;;;;;20.55;12.02;;;4.90;84.90;;;;;;5056082;28;20039;-78
2021/03/24 09:55:47;;;;;;;19.35;11.93;;;4.90;84.90;;;;;;5056149;28;20025;-78
2021/03/24 09:58:22;;;;;;;21.50;12.20;;;4.90;85.50;;;;;;5055857;28;20066;-79
2021/03/24 10:01:18;;;;;;;23.05;12.10;;;4.90;85.30;;;;;;5054695;28;20033;-79
2021/03/24 10:03:47;;;;;;;29.35;15.68;;;5.00;85.80;;;;;;5054681;28;20486;-79
2021/03/24 10:06:29;;;;;;;37.60;14.82;;;5.00;85.60;;;;;;5055799;28;20035;-79
2021/03/24 10:09:42;;;;;;;22.25;10.57;;;5.10;84.50;;;;;;5055929;28;20024;-79
2021/03/24 10:12:26;;;;;;;20.17;12.20;;;5.10;84.30;;;;;;5054539;28;20043;-79
2021/03/24 10:15:00;;;;;;;21.92;12.85;;;5.20;83.80;;;;;;5055724;28;20025;-79
2021/03/24 10:17:37;;;;;;;21.23;11.10;;;5.30;83.70;;;;;;5054553;28;20033;-80
2021/03/24 10:20:09;;;;;;;26.95;13.38;;;5.30;82.20;;;;;;5055664;28;20507;-79
2021/03/24 10:22:42;;;;;;;26.00;13.93;;;5.30;82.20;;;;;;5055528;28;20025;-79
2021/03/24 10:25:15;;;;;;;27.58;13.68;;;5.30;82.50;;;;;;5055493;28;20104;-79
2021/03/24 10:27:48;;;;;;;27.95;13.20;;;5.30;82.10;;;;;;5054252;28;20048;-80
2021/03/24 10:30:14;;;;;;;30.27;15.18;;;5.30;82.10;;;;;;5055201;28;20033;-79
2021/03/24 10:32:49;;;;;;;23.17;14.93;;;5.40;81.50;;;;;;5054227;28;20360;-79
2021/03/24 10:35:34;;;;;;;19.85;12.00;;;5.40;78.50;;;;;;5055321;28;20059;-79
2021/03/24 10:38:11;;;;;;;22.50;14.00;;;5.40;79.50;;;;;;5055111;28;20033;-79
2021/03/24 10:40:44;;;;;;;31.10;15.65;;;5.40;79.30;;;;;;5055187;28;20383;-80
2021/03/24 10:43:38;;;;;;;19.58;10.27;;;5.50;80.00;;;;;;5054008;28;20074;-79
2021/03/24 10:46:27;;;;;;;21.90;11.65;;;5.40;79.20;;;;;;5053775;28;20028;-80
2021/03/24 10:49:08;;;;;;;22.25;13.07;;;5.40;79.80;;;;;;5045914;28;20552;-80
2021/03/24 10:51:40;;;;;;;26.17;13.57;;;5.50;79.40;;;;;;5052750;28;20123;-80
2021/03/24 10:54:26;;;;;;;32.88;15.00;;;5.50;79.30;;;;;;5054920;28;20051;-79
2021/03/24 10:57:24;;;;;;;19.55;10.80;;;5.60;79.30;;;;;;5053413;28;20486;-79
2021/03/24 10:59:52;;;;;;;24.25;13.45;;;5.60;77.60;;;;;;5054965;28;20108;-79
2021/03/24 11:02:33;;;;;;;22.85;12.27;;;5.50;77.50;;;;;;5054757;28;20021;-79
2021/03/24 11:05:14;;;;;;;31.95;16.17;;;5.50;78.20;;;;;;5053621;28;20075;-79
2021/03/24 11:07:45;;;;;;;24.63;13.88;;;5.60;79.40;;;;;;5053072;28;20026;-78
2021/03/24 11:10:11;;;;;;;33.33;16.02;;;5.60;79.00;;;;;;5052719;28;20025;-82
2021/03/24 11:12:42;;;;;;;29.45;15.27;;;5.60;78.80;;;;;;5053317;28;20040;-82
2021/03/24 11:15:27;;;;;;;32.50;16.25;;;5.60;77.60;;;;;;5054421;28;20021;-81
2021/03/24 11:18:08;;;;;;;27.20;16.23;;;5.70;77.60;;;;;;5053192;28;20031;-81
2021/03/24 11:20:47;;;;;;;29.92;14.27;;;5.70;77.10;;;;;;5053447;28;20049;-81
2021/03/24 11:23:35;;;;;;;28.83;15.52;;;5.80;77.10;;;;;;5053175;28;20417;-81
2021/03/24 11:26:30;;;;;;;31.25;15.20;;;5.80;75.90;;;;;;5054525;28;20021;-81
2021/03/24 11:29:00;;;;;;;32.60;17.25;;;5.90;76.90;;;;;;5050842;28;20082;-82
2021/03/24 11:31:40;;;;;;;28.30;15.65;;;5.90;76.40;;;;;;5053144;28;20036;-81
2021/03/24 11:34:11;;;;;;;26.60;15.35;;;6.00;75.30;;;;;;5052761;28;20025;-80
2021/03/24 11:36:42;;;;;;;30.55;15.30;;;5.80;76.20;;;;;;5052902;28;20021;-81
2021/03/24 11:39:16;;;;;;;35.25;18.73;;;6.00;75.30;;;;;;5054078;28;20029;-81
2021/03/24 11:41:44;;;;;;;34.70;17.92;;;6.10;75.10;;;;;;5054344;28;20021;-81
2021/03/24 11:44:22;;;;;;;27.00;16.30;;;6.10;75.10;;;;;;5052677;28;20104;-80
2021/03/24 11:46:47;;;;;;;30.13;16.77;;;6.20;74.10;;;;;;5053993;28;20036;-81
2021/03/24 11:49:25;;;;;;;29.95;15.93;;;6.00;74.90;;;;;;5052519;28;20036;-81
2021/03/24 11:52:17;;;;;;;29.73;14.98;;;6.00;75.20;;;;;;5053860;28;20036;-80
2021/03/24 11:54:49;;;;;;;30.65;16.65;;;6.00;74.20;;;;;;5052483;28;20024;-81
2021/03/24 11:57:42;;;;;;;32.75;18.23;;;5.90;75.60;;;;;;5052360;28;20096;-81
2021/03/24 12:00:32;;;;;;;36.88;20.10;;;5.90;74.30;;;;;;5052296;28;20028;-81
2021/03/24 12:03:03;;;;;;;41.35;19.58;;;5.90;75.10;;;;;;5052389;28;20025;-81
2021/03/24 12:05:56;;;;;;;37.85;20.20;;;5.80;74.90;;;;;;5053471;28;20021;-81
2021/03/24 12:08:33;;;;;;;31.45;15.05;;;6.00;74.20;;;;;;5037226;28;20048;-82
2021/03/24 12:11:04;;;;;;;32.70;17.95;;;6.00;73.40;;;;;;5040675;28;20033;-82
2021/03/24 12:13:34;;;;;;;29.10;16.95;;;6.20;73.40;;;;;;5048203;28;20029;-82
2021/03/24 12:16:11;;;;;;;34.65;19.00;;;6.30;72.70;;;;;;5038566;28;20021;-82
2021/03/24 12:18:51;;;;;;;30.00;17.15;;;6.30;71.80;;;;;;5051439;28;20029;-82
2021/03/24 12:21:30;;;;;;;29.60;16.45;;;6.30;70.80;;;;;;5052656;28;20681;-82
2021/03/24 12:24:24;;;;;;;35.45;18.10;;;6.40;71.30;;;;;;5051188;28;20398;-82
2021/03/24 12:26:50;;;;;;;34.83;19.40;;;6.40;71.20;;;;;;5053234;28;20025;-81
2021/03/24 12:29:22;;;;;;;33.22;17.63;;;6.50;71.40;;;;;;5051974;28;20082;-82
2021/03/24 12:31:56;;;;;;;34.38;17.33;;;6.50;70.50;;;;;;5053005;28;20043;-82
2021/03/24 12:34:23;;;;;;;30.50;16.33;;;6.50;70.50;;;;;;5051866;28;20019;-82
2021/03/24 12:36:59;;;;;;;29.80;17.42;;;6.60;70.10;;;;;;5051894;28;20039;-82
2021/03/24 12:39:29;;;;;;;35.65;17.70;;;6.80;69.60;;;;;;5052857;28;20060;-82
2021/03/24 12:42:06;;;;;;;29.35;15.68;;;6.70;69.40;;;;;;5051780;28;20053;-82
2021/03/24 12:44:40;;;;;;;29.98;16.48;;;6.80;69.50;;;;;;5053045;28;20074;-81
2021/03/24 12:47:23;;;;;;;33.22;17.58;;;6.90;69.00;;;;;;5052762;28;20079;-82
2021/03/24 12:50:01;;;;;;;32.55;19.05;;;6.80;67.80;;;;;;5035191;28;20128;-81
2021/03/24 12:52:31;;;;;;;34.17;18.98;;;6.80;67.50;;;;;;5051620;28;20025;-83
2021/03/24 12:54:57;;;;;;;30.40;18.23;;;6.70;67.30;;;;;;5051436;28;20021;-82
2021/03/24 12:57:36;;;;;;;58.25;31.70;;;6.80;66.80;;;;;;5051315;28;20024;-82
2021/03/24 13:00:20;;;;;;;32.90;19.20;;;6.80;66.90;;;;;;5051437;28;20043;-82
2021/03/24 13:03:28;;;;;;;53.85;30.42;;;6.90;67.60;;;;;;5052825;28;20029;-81
2021/03/24 13:06:32;;;;;;;38.25;22.05;;;6.90;66.10;;;;;;5052122;28;20025;-81
2021/03/24 13:09:12;;;;;;;48.28;25.65;;;6.90;65.60;;;;;;5028597;28;20041;-82
2021/03/24 13:11:54;;;;;;;40.13;19.83;;;7.00;66.70;;;;;;5052526;28;20044;-82
2021/03/24 13:14:40;;;;;;;32.78;17.75;;;7.00;66.30;;;;;;5052050;28;20463;-81
2021/03/24 13:17:27;;;;;;;34.45;18.45;;;6.80;66.60;;;;;;5052605;28;20108;-82
2021/03/24 13:20:21;;;;;;;29.75;16.95;;;6.60;68.50;;;;;;5044092;28;20021;-82
2021/03/24 13:22:57;;;;;;;32.08;18.52;;;6.60;68.50;;;;;;5046718;28;20025;-82
2021/03/24 13:25:34;;;;;;;31.58;17.77;;;6.50;69.20;;;;;;5038827;28;20463;-82
2021/03/24 13:28:27;;;;;;;32.28;17.55;;;6.50;68.90;;;;;;5042438;28;20116;-82
2021/03/24 13:31:28;;;;;;;26.08;16.30;;;6.50;68.40;;;;;;5051088;28;20037;-82